NCAR-RAP Real-Time Weather Data

Output produced by METARs form (22 January 2018  04:06 UTC)
found at http://weather.rap.ucar.edu/surface/
 
KSYR 220354Z 07003KT 8SM OVC032 02/01 A3010 RMK AO2 RAB0259E21 SLP194 P0000 T00170006
KSYR 220254Z 08004KT 10SM OVC037 02/00 A3011 RMK AO2 SLP195 T00220000 56003
KSYR 220154Z 07005KT 10SM OVC037 02/M01 A3011 RMK AO2 SLP197 T00221006
KSYR 220054Z 08005KT 10SM OVC043 02/M01 A3011 RMK AO2 SLP197 T00221006
KSYR 212354Z 07005KT 10SM OVC033 03/M01 A3011 RMK AO2 SLP198 4/006 T00281006 10050 20028 53002
KSYR 212254Z 07006KT 10SM BKN030 BKN035 OVC050 03/M01 A3011 RMK AO2 SLP195 T00281006
KSYR 212154Z 07005KT 10SM OVC035 03/M01 A3011 RMK AO2 SLP197 T00331006
KSYR 212054Z 06006KT 10SM OVC032 04/M01 A3011 RMK AO2 SLP196 T00391006 55003
KSYR 211954Z 07004KT 10SM OVC032 04/M01 A3010 RMK AO2 SLP194 T00441006
KSYR 211854Z 09005KT 10SM OVC032 04/00 A3010 RMK AO2 SLP193 T00440000
KSYR 211754Z 00000KT 10SM SCT030 BKN180 BKN250 04/00 A3012 RMK AO2 SLP200 4/007 933014 T00440000 10050 21039 58012
KSYR 211654Z 00000KT 10SM SCT026 BKN250 04/M01 A3014 RMK AO2 SLP207 T00441006
KSYR 211554Z 00000KT 9SM BKN025 OVC180 02/M01 A3015 RMK AO2 SLP212 T00221006
KSYR 211538Z 00000KT 8SM BKN025 BKN180 02/M01 A3016 RMK AO2 T00221006
KSYR 211454Z 00000KT 7SM FEW180 BKN250 01/M02 A3016 RMK AO2 SLP214 T00061017 51010
KSYR 211354Z 00000KT 5SM BR FEW180 BKN250 M02/M02 A3015 RMK AO2 SLP212 T10171022
KSYR 211254Z 00000KT 6SM BR SCT180 BKN250 M03/M03 A3013 RMK AO2 SLP205 T10331033
KSYR 211154Z 25004KT 10SM FEW028 BKN200 M01/M03 A3013 RMK AO2 SLP203 4/007 T10111028 10011 21017 53016
KSYR 211054Z 28003KT 10SM FEW034 OVC180 00/M02 A3011 RMK AO2 SLP196 T00001022
KSYR 210954Z 23009KT 10SM BKN034 OVC180 01/M02 A3008 RMK AO2 SLP187 BKN V OVC T00111017
KSYR 210854Z 25008KT 10SM SCT180 BKN200 M01/M03 A3008 RMK AO2 SLP186 T10061028 51009
KSYR 210754Z 24007KT 10SM FEW190 BKN210 M02/M03 A3008 RMK AO2 SLP185 T10171033
KSYR 210654Z 25006KT 10SM SCT200 M01/M03 A3006 RMK AO2 SLP181 T10061028
KSYR 210554Z 25008KT 10SM SCT190 SCT250 01/M02 A3005 RMK AO2 SLP177 4/007 T00061022 10022 21028 53009
KSYR 210454Z 24013KT 10SM SCT250 02/M02 A3004 RMK AO2 SLP172 T00171022 400611028
KSYR 210354Z 24008KT 10SM BKN250 M01/M03 A3003 RMK AO2 SLP168 T10061033
KSYR 210254Z 22005KT 10SM BKN250 M01/M03 A3002 RMK AO2 SLP167 T10111028 51017
KSYR 210154Z 26004KT 10SM FEW150 BKN250 00/M03 A3001 RMK AO2 SLP162 T00001028
KSYR 210054Z 28004KT 10SM BKN250 01/M03 A3000 RMK AO2 SLP159 T00061028
KSYR 202354Z 22003KT 10SM SCT250 02/M02 A2997 RMK AO2 SLP150 4/007 T00221022 10061 20017 51027
KSYR 202254Z 28006KT 10SM FEW150 SCT250 04/M02 A2996 RMK AO2 SLP147 T00391017
KSYR 202154Z 27006KT 10SM FEW150 FEW180 BKN250 04/M02 A2993 RMK AO2 SLP135 T00391017
KSYR 202054Z 25011KT 10SM FEW150 SCT250 05/M02 A2989 RMK AO2 SLP121 T00501017 53015
KSYR 201954Z 26011KT 10SM FEW043 SCT200 BKN250 06/M02 A2987 RMK AO2 SLP113 T00561017
KSYR 201854Z 25011KT 10SM FEW040 SCT180 BKN240 06/M02 A2985 RMK AO2 SLP108 T00561017
KSYR 201754Z 25011KT 10SM FEW100 SCT180 BKN250 05/M02 A2985 RMK AO2 PK WND 25028/1716 SLP106 4/007 933015 T00501022 10050 20011 51007
KSYR 201654Z 25019G24KT 10SM SCT140 BKN250 05/M03 A2984 RMK AO2 PK WND 25029/1607 SLP105 T00501028
KSYR 201554Z 25017G25KT 10SM FEW045 SCT140 BKN240 05/M03 A2984 RMK AO2 SLP104 T00501028
KSYR 201454Z 25014G23KT 10SM FEW140 SCT180 BKN240 04/M03 A2983 RMK AO2 SLP102 T00441033 51023
KSYR 201354Z 24014KT 10SM FEW120 SCT180 BKN230 04/M04 A2981 RMK AO2 SLP096 T00391039
KSYR 201254Z 24012G18KT 10SM FEW200 BKN230 02/M05 A2978 RMK AO2 SLP085 T00221050
KSYR 201154Z 23008KT 10SM FEW150 SCT250 02/M06 A2976 RMK AO2 SLP079 4/008 T00221056 10039 20022 53021
KSYR 201054Z 22008KT 10SM FEW150 SCT200 02/M06 A2973 RMK AO2 SLP070 T00221056
KSYR 200954Z 21011G19KT 10SM FEW150 SCT200 03/M06 A2971 RMK AO2 SLP061 T00281061
KSYR 200854Z 21015G19KT 10SM BKN180 03/M06 A2970 RMK AO2 SLP057 T00281056 58006
KSYR 200754Z 21009KT 10SM BKN180 03/M06 A2972 RMK AO2 SLP064 T00331061
KSYR 200654Z 21008KT 10SM BKN200 03/M05 A2971 RMK AO2 SLP061 T00331050
KSYR 200554Z 20009KT 10SM BKN200 03/M06 A2972 RMK AO2 SLP063 4/008 T00331056 10039 21067 58024
KSYR 200454Z 21009KT 10SM BKN200 03/M06 A2975 RMK AO2 SLP075 T00331056 400331100
KSYR 200354Z 19007KT 10SM BKN250 01/M05 A2976 RMK AO2 PRESFR SLP080 T00111050
KSYR 200254Z 11004KT 10SM SCT250 M05/M07 A2979 RMK AO2 SLP090 T10501072 58018
KSYR 200154Z 00000KT 10SM SCT250 M05/M08 A2981 RMK AO2 SLP098 T10501083
KSYR 200054Z 08005KT 10SM SCT250 M03/M08 A2983 RMK AO2 SLP103 T10331078
KSYR 192354Z 09006KT 10SM FEW250 M03/M08 A2984 RMK AO2 SLP108 4/008 T10281078 10006 21044 56015
KSYR 192254Z 06004KT 10SM FEW250 M03/M07 A2986 RMK AO2 SLP114 T10281072
KSYR 192154Z 00000KT 10SM FEW250 M01/M08 A2986 RMK AO2 SLP116 T10111078
KSYR 192054Z 21004KT 10SM FEW250 00/M07 A2989 RMK AO2 SLP124 T00001072 58010
KSYR 191954Z 22006KT 10SM FEW038 SCT250 00/M07 A2990 RMK AO2 SLP127 T00001072
KSYR 191854Z 23009KT 10SM FEW038 SCT250 M01/M07 A2992 RMK AO2 SLP133 T10061072
KSYR 191754Z 22011KT 10SM BKN038 M01/M07 A2992 RMK AO2 SLP133 4/008 933018 T10111072 11006 21072 58016
KSYR 191654Z 23013KT 10SM OVC038 M01/M07 A2994 RMK AO2 SLP142 T10111072
KSYR 191554Z 24013KT 10SM OVC039 M02/M07 A2996 RMK AO2 SLP147 T10171067
KSYR 191454Z 24013KT 10SM OVC031 M02/M07 A2996 RMK AO2 SLP149 T10221072 52004
KSYR 191354Z 23010KT 10SM OVC032 M03/M08 A2996 RMK AO2 SLP147 T10281083
KSYR 191254Z 20005KT 10SM BKN033 BKN230 M06/M09 A2996 RMK AO2 SLP149 T10611094
KSYR 191154Z 20007KT 10SM FEW150 SCT240 M07/M11 A2995 RMK AO2 SLP147 4/008 T10671106 11061 21100 53002
KSYR 191054Z 19005KT 10SM FEW140 BKN230 M07/M11 A2995 RMK AO2 SLP146 T10721111
KSYR 190954Z 18004KT 10SM FEW140 M10/M12 A2994 RMK AO2 SLP143 T11001122
KSYR 190854Z 21004KT 10SM SCT140 M07/M11 A2995 RMK AO2 SLP145 T10671106 56007
KSYR 190754Z 19006KT 10SM FEW100 BKN140 M06/M11 A2995 RMK AO2 SLP146 BKN V OVC T10611106
KSYR 190654Z 11003KT 10SM FEW039 BKN100 OVC150 M07/M10 A2996 RMK AO2 SLP148 T10721100
KSYR 190554Z 11003KT 10SM SCT041 OVC120 M07/M10 A2997 RMK AO2 SLP151 SCT V BKN 4/008 T10721100 11061 21078 58013
KSYR 190454Z 13003KT 10SM BKN120 BKN140 M08/M11 A2999 RMK AO2 SLP159 T10781106 410611206
KSYR 190354Z 15004KT 10SM FEW040 M08/M11 A2999 RMK AO2 SLP160 T10781111
KSYR 190254Z 17005KT 10SM FEW040 M07/M11 A3001 RMK AO2 SLP165 T10721106 58008
KSYR 190201Z 23005KT 10SM BKN040 M07/M11 A3002 RMK AO2 T10671106
KSYR 190154Z 23006KT 10SM BKN029 OVC040 M07/M11 A3002 RMK AO2 SLP171 T10671106
KSYR 190054Z 23009KT 10SM OVC026 M06/M10 A3003 RMK AO2 SLP175 T10611100
KSYR 182354Z 25010KT 10SM OVC030 M06/M10 A3003 RMK AO2 SLP176 4/009 T10611100 11061 21067 53004
KSYR 182254Z 24011KT 10SM OVC033 M06/M10 A3001 RMK AO2 SLP169 T10611100
KSYR 182154Z 25010KT 10SM OVC033 M06/M10 A3002 RMK AO2 SLP170 T10611100
KSYR 182054Z 25017KT 10SM OVC030 M06/M10 A3002 RMK AO2 SLP172 T10611100 55001
KSYR 181954Z 25012KT 10SM OVC031 M06/M11 A3001 RMK AO2 SLP169 T10611106
KSYR 181854Z 24017KT 10SM OVC035 M06/M11 A3002 RMK AO2 SLP170 T10611106
KSYR 181754Z 23014KT 10SM OVC035 M06/M11 A3002 RMK AO2 SLP173 4/009 933022 T10611111 11061 21206 58015
KSYR 181654Z 25015KT 10SM OVC037 M07/M11 A3004 RMK AO2 SLP179 T10671111
KSYR 181554Z 24017KT 10SM OVC036 M08/M12 A3006 RMK AO2 SLP184 T10781122
KSYR 181454Z 24013KT 10SM OVC035 M08/M13 A3007 RMK AO2 SLP187 T10831128 53002
KSYR 181354Z VRB03KT 7SM BKN032 OVC200 M14/M16 A3006 RMK AO2 SLP187 T11441156
KSYR 181254Z 00000KT 7SM SCT033 SCT200 M19/M21 A3006 RMK AO2 SLP187 T11941206
KSYR 181154Z 00000KT 10SM FEW200 M20/M21 A3006 RMK AO2 SLP187 4/009 70001 T12001211 11161 21206 56008
KSYR 181054Z 00000KT 10SM CLR M20/M21 A3007 RMK AO2 SLP188 T12001211
KSYR 180954Z 00000KT 10SM CLR M19/M19 A3007 RMK AO2 SLP189 T11891189
KSYR 180854Z 10003KT 10SM CLR M19/M20 A3009 RMK AO2 SLP194 T11891200 58007
KSYR 180754Z 00000KT 8SM CLR M18/M19 A3010 RMK AO2 SLP200 T11781189
KSYR 180654Z 09004KT 10SM CLR M18/M19 A3010 RMK AO2 SLP198 T11781189
KSYR 180554Z 09003KT 9SM CLR M17/M17 A3011 RMK AO2 SLP202 4/009 60000 T11671172 11094 21172 57020
KSYR 180454Z 00000KT 10SM FEW050 M16/M16 A3013 RMK AO2 SNE04 SLP210 P0000 T11561161 410441156
KSYR 180354Z 00000KT 10SM -SN SCT050 M14/M16 A3015 RMK AO2 SNB51 SLP214 P0000 T11391156
KSYR 180254Z 00000KT 10SM FEW240 M13/M14 A3017 RMK AO2 SLP222 T11331144 56028
KSYR 180154Z 22005KT 10SM FEW240 M11/M14 A3019 RMK AO2 SLP230 T11061144
KSYR 180054Z 22006KT 10SM FEW045 FEW240 M10/M14 A3022 RMK AO2 SLP240 T11001139